createdAt,value
2023-02-08T02:37:12.121Z,22.51
2023-02-08T02:51:11.653Z,22.45
2023-02-08T02:52:11.641Z,22.44
2023-02-08T02:53:11.600Z,22.47
2023-02-08T02:54:11.564Z,22.50
2023-02-08T02:55:11.533Z,22.48
2023-02-08T02:56:11.523Z,22.45
2023-02-08T02:57:11.487Z,22.47
2023-02-08T02:58:11.455Z,22.48
2023-02-08T02:59:11.439Z,22.44
2023-02-08T03:00:11.396Z,22.44
2023-02-08T03:01:11.414Z,22.51
2023-02-08T03:02:11.338Z,22.45
2023-02-08T03:03:11.310Z,22.44
2023-02-08T03:04:11.309Z,22.44
2023-02-08T03:05:11.258Z,22.45
2023-02-08T03:06:11.233Z,22.48
2023-02-08T03:07:11.232Z,22.45
2023-02-08T03:08:11.198Z,22.50
2023-02-08T03:09:11.149Z,22.46
2023-02-08T03:10:11.115Z,22.47
2023-02-08T03:11:11.081Z,22.47
2023-02-08T03:12:11.075Z,22.41
2023-02-08T03:13:11.039Z,22.44
2023-02-08T03:14:11.005Z,22.47
2023-02-08T03:15:10.972Z,22.44
2023-02-08T03:16:10.942Z,22.43
2023-02-08T03:17:10.917Z,22.48
2023-02-08T03:18:10.898Z,22.48
2023-02-08T03:19:10.872Z,22.44
2023-02-08T03:20:10.859Z,22.45
2023-02-08T03:21:10.793Z,22.43
2023-02-08T03:22:10.756Z,22.45
2023-02-08T03:23:10.747Z,22.47
2023-02-08T03:24:10.719Z,22.45
2023-02-08T03:25:10.682Z,22.44
2023-02-08T03:26:10.653Z,22.44
2023-02-08T03:27:10.623Z,22.41
2023-02-08T03:28:10.622Z,22.40
2023-02-08T03:29:10.581Z,22.47
2023-02-08T03:30:10.557Z,22.43
2023-02-08T03:31:10.589Z,22.40
2023-02-08T03:32:10.499Z,22.44
2023-02-08T03:33:10.490Z,22.44
2023-02-08T03:34:10.437Z,22.44
2023-02-08T03:35:10.408Z,22.41
2023-02-08T03:36:10.399Z,22.43
2023-02-08T03:37:10.358Z,22.40
2023-02-08T03:38:10.319Z,22.45
2023-02-08T03:39:10.306Z,22.40
2023-02-08T03:40:10.268Z,22.48
2023-02-08T03:41:10.248Z,22.44
2023-02-08T03:42:10.199Z,22.44
2023-02-08T03:43:10.167Z,22.32
2023-02-08T03:44:10.140Z,22.06
2023-02-08T03:45:10.120Z,21.92
2023-02-08T03:46:10.108Z,21.91
2023-02-08T03:47:10.046Z,22.06
2023-02-08T03:48:10.010Z,21.92
2023-02-08T03:49:09.977Z,22.00
2023-02-08T03:50:09.993Z,21.79
2023-02-08T03:51:09.910Z,21.62
2023-02-08T03:52:09.875Z,21.72
2023-02-08T03:53:09.863Z,21.86
2023-02-08T03:54:09.809Z,21.86
2023-02-08T03:55:09.787Z,21.98
2023-02-08T03:56:09.752Z,21.58
2023-02-08T03:57:09.725Z,21.58
2023-02-08T03:58:09.680Z,21.64
2023-02-08T03:59:09.656Z,21.70
2023-02-08T04:00:09.622Z,21.67
2023-02-08T04:01:09.655Z,21.83
2023-02-08T04:02:09.568Z,21.53
2023-02-08T04:03:09.535Z,21.42
2023-02-08T04:04:09.502Z,21.48
2023-02-08T04:05:09.483Z,21.61
2023-02-08T04:06:09.439Z,21.74
2023-02-08T04:07:09.405Z,21.45
2023-02-08T04:08:09.384Z,21.33
2023-02-08T04:09:09.356Z,21.30
2023-02-08T04:10:09.337Z,21.46
2023-02-08T04:11:09.300Z,21.52
2023-02-08T04:12:09.257Z,21.64
2023-02-08T04:13:09.245Z,21.34
2023-02-08T04:14:09.216Z,21.24
2023-02-08T04:15:09.190Z,21.19
2023-02-08T04:16:09.226Z,21.21
2023-02-08T04:17:09.138Z,21.35
2023-02-08T04:18:09.112Z,21.41
2023-02-08T04:19:09.088Z,21.13
2023-02-08T04:20:09.053Z,21.13
2023-02-08T04:21:09.021Z,21.19
2023-02-08T04:22:08.999Z,21.37
2023-02-08T04:23:08.971Z,21.44
2023-02-08T04:24:08.937Z,21.15
2023-02-08T04:25:08.920Z,21.10
2023-02-08T04:26:08.930Z,21.13
2023-02-08T04:27:08.857Z,21.22
2023-02-08T04:28:08.873Z,21.25
2023-02-08T04:29:08.796Z,21.29
2023-02-08T04:30:08.785Z,21.02
2023-02-08T04:31:08.861Z,21.00
2023-02-08T04:32:08.716Z,21.03
2023-02-08T04:33:08.702Z,21.03
2023-02-08T04:34:08.666Z,21.10
2023-02-08T04:35:08.639Z,21.16
2023-02-08T04:36:08.612Z,20.91
2023-02-08T04:37:08.608Z,20.98
2023-02-08T04:38:08.550Z,21.07
2023-02-08T04:39:08.522Z,21.13
2023-02-08T04:40:08.504Z,21.15
2023-02-08T04:41:08.474Z,20.88
2023-02-08T04:42:08.442Z,20.81
2023-02-08T04:43:08.406Z,20.94
2023-02-08T04:44:08.374Z,21.04
2023-02-08T04:45:08.349Z,21.18
2023-02-08T04:46:08.363Z,20.98
2023-02-08T04:47:08.314Z,20.79
2023-02-08T04:48:08.281Z,20.76
2023-02-08T04:49:08.273Z,20.76
2023-02-08T04:50:08.229Z,20.82
2023-02-08T04:51:08.210Z,21.03
2023-02-08T04:52:08.181Z,20.92
2023-02-08T04:53:08.154Z,20.75
2023-02-08T04:54:08.119Z,20.76
2023-02-08T04:55:08.095Z,20.87
2023-02-08T04:56:08.062Z,20.98
2023-02-08T04:57:08.054Z,21.00
2023-02-08T04:58:08.038Z,20.70
2023-02-08T04:59:07.990Z,20.66
2023-02-08T05:00:07.960Z,20.79
2023-02-08T05:01:07.940Z,20.91
2023-02-08T05:02:07.895Z,21.01
2023-02-08T05:03:07.860Z,20.82
2023-02-08T05:04:07.836Z,20.60
2023-02-08T05:05:07.879Z,20.61
2023-02-08T05:06:07.763Z,20.63
2023-02-08T05:07:07.733Z,20.70
2023-02-08T05:08:07.702Z,20.89
2023-02-08T05:09:07.676Z,20.64
2023-02-08T05:10:07.647Z,20.48
2023-02-08T05:11:07.629Z,20.53
2023-02-08T05:12:07.596Z,20.70
2023-02-08T05:13:07.565Z,20.85
2023-02-08T05:14:07.535Z,20.83
2023-02-08T05:15:07.510Z,20.51
2023-02-08T05:16:07.517Z,20.51
2023-02-08T05:17:07.454Z,20.58
2023-02-08T05:18:07.423Z,20.71
2023-02-08T05:19:07.399Z,20.77
2023-02-08T05:20:07.367Z,20.67
2023-02-08T05:21:07.337Z,20.48
2023-02-08T05:22:07.308Z,20.46
2023-02-08T05:23:07.273Z,20.57
2023-02-08T05:24:07.238Z,20.51
2023-02-08T05:25:07.216Z,20.71
2023-02-08T05:26:07.190Z,20.52
2023-02-08T05:27:07.160Z,20.40
2023-02-08T05:28:07.185Z,20.52
2023-02-08T05:29:07.110Z,20.60
2023-02-08T05:30:07.102Z,20.67
2023-02-08T05:31:07.130Z,20.64
2023-02-08T05:32:07.046Z,20.43
2023-02-08T05:33:07.017Z,20.33
2023-02-08T05:34:06.978Z,20.51
2023-02-08T05:35:06.950Z,20.58
2023-02-08T05:36:06.923Z,20.73
2023-02-08T05:37:06.901Z,20.48
2023-02-08T05:38:06.881Z,20.32
2023-02-08T05:39:06.849Z,20.35
2023-02-08T05:40:06.819Z,20.35
2023-02-08T05:41:06.785Z,20.49
2023-02-08T05:42:06.750Z,20.71
2023-02-08T05:43:06.766Z,20.34
2023-02-08T05:44:06.694Z,20.34
2023-02-08T05:45:06.692Z,20.37
2023-02-08T05:46:06.644Z,20.39
2023-02-08T05:47:06.677Z,20.60
2023-02-08T05:48:06.585Z,20.52
2023-02-08T05:49:06.559Z,20.34
2023-02-08T05:50:06.533Z,20.24
2023-02-08T05:51:06.551Z,20.36
2023-02-08T05:52:06.463Z,20.36
2023-02-08T05:53:06.438Z,20.55
2023-02-08T05:54:06.416Z,20.49
2023-02-08T05:55:06.392Z,20.30
2023-02-08T05:56:06.360Z,20.26
2023-02-08T05:57:06.326Z,20.26
2023-02-08T05:58:06.292Z,20.40
2023-02-08T05:59:06.261Z,20.61
2023-02-08T06:00:06.246Z,20.33
2023-02-08T06:01:06.197Z,20.21
2023-02-08T06:02:06.164Z,20.23
2023-02-08T06:03:06.252Z,20.29
2023-02-08T06:04:06.194Z,20.43
2023-02-08T06:05:06.077Z,20.43
2023-02-08T06:06:06.040Z,20.39
2023-02-08T06:07:06.040Z,20.17
2023-02-08T06:08:06.011Z,20.20
2023-02-08T06:09:05.973Z,20.30
2023-02-08T06:10:05.936Z,20.42
2023-02-08T06:11:05.906Z,20.50
2023-02-08T06:12:05.879Z,20.15
2023-02-08T06:13:05.847Z,20.02
2023-02-08T06:14:05.815Z,20.16
2023-02-08T06:15:05.792Z,20.34
2023-02-08T06:16:05.809Z,20.39
2023-02-08T06:17:05.740Z,20.40
2023-02-08T06:18:05.697Z,20.17
2023-02-08T06:19:05.682Z,20.16
2023-02-08T06:20:05.641Z,20.24
2023-02-08T06:21:05.627Z,20.26
2023-02-08T06:22:05.613Z,20.33
2023-02-08T06:23:05.567Z,20.45
2023-02-08T06:24:05.531Z,20.21
2023-02-08T06:25:05.543Z,20.17
2023-02-08T06:26:05.528Z,20.18
2023-02-08T06:27:05.464Z,20.36
2023-02-08T06:28:05.483Z,20.45
2023-02-08T06:29:05.440Z,20.16
2023-02-08T06:30:05.378Z,20.20
2023-02-08T06:31:05.362Z,20.65
2023-02-08T06:32:05.417Z,20.71
2023-02-08T06:33:05.294Z,20.79
2023-02-08T06:34:25.880Z,21.62
2023-02-08T06:35:25.866Z,21.44
2023-02-08T06:36:25.832Z,21.43
2023-02-08T06:37:25.814Z,21.53
2023-02-08T06:38:25.795Z,21.52
2023-02-08T06:39:25.770Z,21.69
2023-02-08T06:40:25.763Z,22.04
2023-02-08T06:41:25.744Z,22.16
2023-02-08T06:42:25.707Z,23.17
2023-02-08T06:43:25.685Z,22.99
2023-02-08T06:44:25.654Z,23.13
2023-02-08T06:45:25.624Z,23.09
2023-02-08T06:46:25.606Z,23.48
2023-02-08T06:47:25.592Z,23.68
2023-02-08T06:48:25.557Z,23.99
2023-02-08T06:49:25.521Z,23.92
2023-02-08T06:50:25.487Z,24.21
2023-02-08T06:51:25.459Z,24.12
2023-02-08T06:52:25.424Z,24.13
2023-02-08T06:53:25.396Z,24.23
2023-02-08T06:54:25.384Z,24.28
2023-02-08T06:55:25.362Z,24.24
2023-02-08T06:56:25.311Z,24.43
2023-02-08T06:57:25.305Z,24.77
2023-02-08T06:58:25.259Z,24.71
2023-02-08T06:59:25.241Z,24.86
2023-02-08T07:00:25.198Z,24.96
2023-02-08T07:01:25.259Z,25.05
2023-02-08T07:02:25.166Z,25.41
2023-02-08T07:03:25.098Z,25.44
2023-02-08T07:04:25.065Z,25.50
2023-02-08T07:05:25.044Z,25.66
2023-02-08T07:06:25.007Z,25.72
2023-02-08T07:07:24.986Z,25.69
2023-02-08T07:08:24.944Z,25.85
2023-02-08T07:09:25.580Z,25.92
2023-02-08T07:10:24.871Z,26.04
2023-02-08T07:11:24.858Z,26.13
2023-02-08T07:13:24.778Z,26.23
2023-02-08T07:14:25.596Z,26.56
2023-02-08T07:15:24.730Z,26.43
2023-02-08T07:16:24.715Z,26.46
2023-02-08T07:17:24.652Z,26.56
2023-02-08T07:18:24.618Z,26.68
2023-02-08T07:19:24.584Z,26.64
2023-02-08T07:20:24.554Z,26.84
2023-02-08T07:21:24.517Z,26.86
2023-02-08T07:22:24.499Z,27.20
2023-02-08T07:23:24.448Z,27.27
2023-02-08T07:24:24.428Z,27.52
2023-02-08T07:25:24.395Z,27.59
2023-02-08T07:26:24.354Z,27.74
2023-02-08T07:27:26.049Z,27.95
2023-02-08T07:28:24.373Z,27.95
2023-02-08T07:29:24.254Z,28.16
2023-02-08T07:30:24.193Z,28.25
2023-02-08T07:31:24.152Z,28.18
2023-02-08T07:32:24.128Z,28.33
2023-02-08T07:33:24.086Z,28.33
2023-02-08T07:34:24.060Z,28.55
2023-02-08T07:35:24.001Z,28.58
2023-02-08T07:36:23.959Z,28.62
2023-02-08T07:37:23.905Z,28.72
2023-02-08T07:38:23.861Z,28.85
2023-02-08T07:39:23.826Z,28.75
2023-02-08T07:40:23.798Z,29.02
2023-02-08T07:41:23.765Z,29.14
2023-02-08T07:42:23.716Z,29.10
2023-02-08T07:43:24.788Z,28.85
2023-02-08T07:44:23.812Z,28.70
2023-02-08T07:45:23.780Z,28.56
2023-02-08T07:46:23.790Z,28.36
2023-02-08T07:47:23.698Z,28.17
2023-02-08T07:48:23.647Z,27.86
2023-02-08T07:49:23.613Z,27.39
2023-02-08T07:50:23.609Z,26.98
2023-02-08T07:51:23.534Z,26.56
2023-02-08T07:52:23.511Z,25.72
2023-02-08T07:53:23.450Z,25.56
2023-02-08T07:54:23.406Z,25.44
2023-02-08T07:55:23.399Z,25.53
2023-02-08T07:56:23.346Z,25.56
2023-02-08T07:57:23.296Z,25.49
2023-02-08T07:58:23.244Z,24.74
2023-02-08T08:00:23.179Z,24.45
2023-02-08T08:01:23.287Z,24.29
2023-02-08T08:02:23.115Z,24.46
2023-02-08T08:03:23.083Z,24.37
2023-02-08T08:04:23.093Z,23.86
2023-02-08T08:05:23.006Z,23.66
2023-02-08T08:06:23.025Z,23.71
2023-02-08T08:07:22.952Z,23.66
2023-02-08T08:08:22.912Z,23.69
2023-02-08T08:09:22.876Z,23.48
2023-02-08T08:10:22.847Z,23.12
2023-02-08T08:11:22.837Z,23.20
2023-02-08T08:12:22.788Z,23.06
2023-02-08T08:14:22.725Z,23.27
2023-02-08T08:15:22.679Z,22.87
2023-02-08T08:16:22.769Z,22.72
2023-02-08T08:17:22.643Z,22.73
2023-02-08T08:18:22.610Z,22.65
2023-02-08T08:19:22.560Z,22.71
2023-02-08T08:20:22.539Z,22.89
2023-02-08T08:21:22.495Z,22.43
2023-02-08T08:22:22.467Z,22.33
2023-02-08T08:23:22.434Z,22.29
2023-02-08T08:24:22.400Z,22.52
2023-02-08T08:25:22.372Z,22.64
2023-02-08T08:26:22.335Z,22.34
2023-02-08T08:27:22.312Z,22.15
2023-02-08T08:28:22.351Z,22.05
2023-02-08T08:29:22.239Z,22.14
2023-02-08T08:30:22.324Z,22.34
2023-02-08T08:31:22.392Z,22.29
2023-02-08T08:32:22.174Z,21.96
2023-02-08T08:33:22.115Z,21.80
2023-02-08T08:34:22.074Z,21.98
2023-02-08T08:35:22.043Z,22.07
2023-02-08T08:36:22.138Z,22.17
2023-02-08T08:38:21.966Z,22.24
2023-02-08T08:43:21.786Z,21.70
2023-02-08T09:21:20.448Z,21.39
2023-02-08T09:28:20.222Z,21.54
2023-02-08T09:31:20.182Z,21.48
2023-02-08T09:34:20.001Z,21.62
2023-02-08T09:37:19.869Z,21.80
2023-02-08T09:38:19.844Z,21.78
2023-02-08T09:42:19.709Z,22.34
2023-02-08T09:43:19.644Z,22.44
2023-02-08T09:48:19.478Z,22.53
2023-02-08T09:54:19.209Z,22.61
2023-02-08T10:13:18.434Z,22.64
2023-02-08T10:14:18.393Z,22.64
2023-02-08T10:15:18.419Z,22.64
2023-02-08T10:16:18.351Z,22.71
2023-02-08T10:17:18.296Z,22.60
2023-02-08T10:25:17.999Z,22.63
2023-02-08T10:26:18.003Z,22.64
2023-02-08T10:27:17.955Z,22.64
2023-02-08T10:28:17.946Z,22.67
2023-02-08T10:29:17.864Z,22.64
2023-02-08T10:30:17.846Z,22.64
2023-02-08T12:39:18.986Z,23.92
2023-02-08T12:40:13.008Z,24.01
2023-02-08T12:41:11.896Z,24.12
2023-02-08T12:42:11.861Z,24.31
2023-02-08T12:43:11.825Z,24.23
2023-02-08T12:44:11.798Z,23.69
2023-02-08T12:45:11.733Z,23.58
2023-02-08T12:46:11.725Z,23.87
2023-02-08T12:47:11.639Z,23.88
2023-02-08T12:48:11.606Z,23.96
2023-02-08T12:49:11.573Z,23.94
2023-02-08T12:50:11.547Z,23.48
2023-02-08T12:51:11.477Z,23.47
2023-02-08T12:52:11.466Z,23.66
2023-02-08T12:53:11.405Z,23.71
2023-02-08T12:54:11.368Z,23.71
2023-02-08T12:55:11.337Z,23.49
2023-02-08T12:56:11.297Z,23.22
2023-02-08T12:57:11.250Z,23.34
2023-02-08T12:58:11.211Z,23.25
2023-02-08T12:59:13.825Z,23.49
2023-02-08T13:00:11.187Z,23.55
2023-02-08T13:01:11.110Z,23.01
2023-02-08T13:02:11.053Z,23.09
2023-02-08T13:03:11.050Z,23.14
2023-02-08T13:04:10.981Z,23.42
2023-02-08T13:05:10.986Z,23.39
2023-02-08T13:06:10.927Z,23.37
2023-02-08T13:07:10.869Z,23.23
2023-02-08T13:08:10.815Z,23.08
2023-02-08T13:09:10.781Z,23.19
2023-02-08T13:10:10.766Z,23.27
2023-02-08T13:11:19.567Z,23.26
2023-02-08T13:12:11.676Z,22.85
2023-02-08T13:13:10.654Z,23.03
2023-02-08T13:14:10.616Z,22.87
2023-02-08T13:15:18.469Z,23.10
2023-02-08T13:16:11.602Z,23.09
2023-02-08T13:17:10.504Z,22.95
2023-02-08T13:18:10.455Z,22.87
2023-02-08T13:19:10.422Z,22.83
2023-02-08T13:20:10.458Z,22.85
2023-02-08T13:21:10.421Z,22.89
2023-02-08T13:22:10.324Z,22.93
2023-02-08T13:23:10.373Z,22.62
2023-02-08T13:24:10.262Z,22.55
2023-02-08T13:25:10.252Z,22.69
2023-02-08T13:26:10.179Z,22.71
2023-02-08T13:27:10.126Z,22.74
2023-02-08T13:28:10.176Z,22.68
2023-02-08T13:29:10.062Z,22.70
2023-02-08T13:30:10.060Z,22.52
2023-02-08T13:31:10.106Z,22.58
2023-02-08T13:32:09.976Z,22.61
2023-02-08T13:33:09.912Z,22.59
2023-02-08T13:34:09.869Z,22.52
2023-02-08T13:35:09.828Z,22.58
2023-02-08T13:36:09.881Z,22.55
2023-02-08T13:37:24.067Z,22.88
2023-02-08T13:38:10.727Z,23.32
2023-02-08T13:39:09.678Z,23.64
2023-02-08T13:40:09.637Z,24.15
2023-02-08T13:41:09.606Z,24.46
2023-02-08T13:42:09.572Z,24.81
2023-02-08T13:43:09.523Z,25.13
2023-02-08T13:44:09.496Z,25.34
2023-02-08T13:45:09.439Z,25.70
2023-02-08T13:46:09.418Z,25.81
2023-02-08T13:47:09.359Z,26.06
2023-02-08T13:48:09.311Z,26.40
2023-02-08T13:49:09.255Z,26.58
2023-02-08T13:50:09.213Z,26.76
2023-02-08T13:51:09.184Z,27.15
2023-02-08T13:52:09.120Z,27.35
2023-02-08T13:53:09.088Z,27.87
2023-02-08T13:54:09.364Z,28.20
2023-02-08T13:55:08.985Z,28.46
2023-02-08T13:56:08.939Z,28.67
2023-02-08T13:57:08.889Z,29.05
2023-02-08T13:58:08.855Z,29.10
2023-02-08T13:59:08.798Z,29.02
2023-02-08T14:00:08.774Z,28.80
2023-02-08T14:01:08.764Z,28.62
2023-02-08T14:02:08.697Z,28.43
2023-02-08T14:03:08.708Z,28.16
2023-02-08T14:04:08.575Z,28.09
2023-02-08T14:05:08.529Z,27.90
2023-02-08T14:06:08.478Z,27.64
2023-02-08T14:07:08.438Z,27.34
2023-02-08T14:08:08.388Z,27.47
2023-02-08T14:09:08.357Z,27.56
2023-02-08T14:10:08.311Z,27.59
2023-02-08T14:11:08.279Z,27.26
2023-02-08T14:12:08.240Z,27.16
2023-02-08T14:13:08.192Z,26.77
2023-02-08T14:14:08.152Z,26.88
2023-02-08T14:15:08.116Z,26.91
2023-02-08T14:16:08.091Z,26.89
2023-02-08T14:17:08.033Z,25.88
2023-02-08T14:18:07.983Z,25.64
2023-02-08T14:19:07.968Z,25.29
2023-02-08T14:20:07.926Z,24.78
2023-02-08T14:21:07.871Z,24.60
2023-02-08T14:22:07.832Z,24.76
2023-02-08T14:23:07.814Z,23.85
2023-02-08T15:47:04.722Z,12.60
2023-02-08T15:48:04.713Z,12.74
2023-02-08T15:49:04.716Z,12.79
2023-02-08T15:50:04.674Z,12.45
2023-02-08T15:51:07.359Z,12.37
2023-02-08T15:52:04.611Z,12.55
2023-02-08T15:53:04.582Z,12.62
2023-02-08T15:54:04.578Z,12.73
2023-02-08T15:55:04.548Z,12.35
2023-02-08T15:56:04.514Z,12.35
2023-02-08T15:57:04.508Z,12.57
2023-02-08T15:58:04.513Z,12.38
2023-02-08T15:59:04.452Z,12.24
2023-02-08T16:00:04.476Z,12.40
2023-02-08T16:01:04.466Z,12.42
2023-02-08T16:02:04.391Z,12.20
2023-02-08T16:03:04.458Z,12.24
2023-02-08T16:04:04.380Z,12.19
2023-02-08T16:05:04.355Z,12.30
2023-02-08T16:06:04.316Z,12.06
2023-02-08T16:07:04.300Z,12.34
2023-02-08T16:08:04.303Z,12.32
2023-02-08T16:12:04.216Z,12.36
2023-02-08T16:13:04.201Z,12.51
2023-02-08T16:14:04.172Z,12.35
2023-02-08T16:15:04.326Z,12.51
2023-02-08T16:16:08.745Z,12.63
2023-02-08T16:17:04.154Z,12.33
2023-02-08T16:18:04.107Z,12.44
2023-02-08T16:19:04.087Z,12.22
2023-02-08T16:20:04.181Z,12.18
2023-02-08T16:21:04.060Z,12.22
2023-02-08T16:22:04.057Z,12.24
2023-02-08T16:23:04.038Z,12.21
2023-02-08T16:24:04.018Z,12.04
2023-02-08T16:25:03.996Z,12.25
2023-02-08T16:26:03.996Z,12.03
2023-02-08T16:27:03.962Z,12.15
2023-02-08T16:28:03.985Z,12.28
2023-02-08T16:29:03.941Z,12.11
2023-02-08T16:30:03.950Z,12.16
2023-02-08T16:31:04.055Z,12.02
2023-02-08T17:17:04.020Z,12.61
2023-02-08T20:20:03.938Z,12.67
2023-02-08T20:21:03.969Z,12.74
2023-02-08T20:22:03.937Z,12.67
2023-02-08T20:23:11.244Z,12.68
2023-02-08T20:24:04.969Z,12.84
2023-02-08T20:25:03.988Z,12.80
2023-02-08T20:26:03.984Z,12.67
2023-02-08T20:27:04.000Z,12.77
2023-02-08T20:28:04.068Z,12.81
2023-02-08T20:29:04.045Z,12.78
2023-02-08T20:30:04.046Z,12.68
2023-02-08T20:31:04.115Z,12.86
2023-02-08T20:32:04.130Z,12.87
2023-02-08T20:33:04.092Z,12.81
2023-02-08T20:34:04.105Z,12.87
2023-02-08T20:35:04.115Z,12.83
2023-02-08T20:36:04.131Z,12.78
2023-02-08T20:37:07.725Z,12.78
2023-02-08T20:38:04.161Z,12.83
2023-02-08T20:39:04.176Z,12.75
2023-02-08T20:40:04.181Z,12.77
2023-02-08T20:41:04.179Z,12.72
2023-02-08T20:42:04.191Z,12.81
2023-02-08T20:43:04.209Z,12.85
2023-02-08T20:44:04.214Z,12.75
2023-02-08T20:45:04.242Z,12.72
2023-02-08T20:46:04.321Z,12.76
2023-02-08T20:47:04.269Z,12.88
2023-02-08T20:48:04.299Z,12.72
2023-02-08T20:49:04.304Z,12.69
2023-02-08T20:50:16.825Z,12.85
2023-02-08T20:51:05.344Z,12.66
2023-02-08T20:52:04.347Z,12.69
2023-02-08T20:53:04.372Z,12.69
2023-02-08T20:54:04.374Z,12.59
2023-02-08T20:55:04.384Z,12.85
2023-02-08T20:56:04.403Z,12.73
2023-02-08T20:57:04.420Z,12.91
2023-02-08T20:58:04.457Z,12.91
2023-02-08T20:59:04.443Z,12.72
2023-02-08T21:00:04.460Z,12.86
2023-02-08T21:01:04.532Z,12.94
2023-02-08T21:02:04.509Z,12.88
2023-02-08T21:03:04.516Z,12.91
2023-02-08T21:04:04.533Z,12.85
2023-02-08T21:05:04.541Z,12.75
2023-02-08T21:06:04.547Z,12.88
2023-02-08T21:07:04.586Z,12.83
2023-02-08T21:08:04.576Z,12.93
2023-02-08T21:09:04.602Z,12.89
2023-02-08T21:10:04.611Z,12.92
2023-02-08T21:11:04.628Z,12.95
2023-02-08T21:12:04.638Z,12.96
2023-02-08T21:13:04.652Z,13.11
2023-02-08T21:14:04.675Z,12.88
2023-02-08T21:15:04.727Z,12.88
2023-02-08T21:16:04.713Z,12.96
2023-02-08T21:17:04.752Z,12.88
2023-02-08T21:18:04.811Z,12.99
2023-02-08T21:19:04.750Z,12.98
2023-02-08T21:20:04.769Z,13.13
2023-02-08T21:21:04.790Z,13.02
2023-02-08T21:22:04.822Z,12.89
2023-02-08T21:23:04.821Z,12.92
2023-02-08T21:24:04.864Z,12.96
2023-02-08T21:25:04.858Z,12.95
2023-02-08T21:26:04.858Z,12.95
2023-02-08T21:27:04.877Z,13.05
2023-02-08T21:28:05.014Z,13.14
2023-02-08T21:29:04.945Z,13.06
2023-02-08T21:30:04.971Z,13.02
2023-02-08T21:31:05.110Z,13.05
2023-02-08T21:32:05.077Z,13.08
2023-02-08T21:33:04.972Z,13.09
2023-02-08T21:34:05.013Z,13.06
2023-02-08T21:35:05.018Z,13.18
2023-02-08T21:36:05.027Z,13.18
2023-02-08T21:37:05.050Z,13.15
2023-02-08T21:38:05.060Z,13.10
2023-02-08T21:39:05.089Z,13.08
2023-02-08T21:40:05.092Z,12.97
2023-02-08T21:41:05.132Z,13.06
2023-02-08T21:42:05.126Z,13.00
2023-02-08T21:43:05.155Z,13.06
2023-02-08T21:44:05.155Z,13.02
2023-02-08T21:45:05.163Z,12.99
2023-02-08T21:46:05.254Z,12.93
2023-02-08T21:47:05.179Z,12.90
2023-02-08T21:48:05.212Z,12.92
2023-02-08T21:49:05.207Z,12.95
2023-02-08T21:50:05.201Z,12.95
2023-02-08T21:51:05.219Z,13.03
2023-02-08T21:52:05.237Z,12.92
2023-02-08T21:53:05.252Z,12.90
2023-02-08T21:54:05.277Z,12.90
2023-02-08T21:55:05.302Z,12.93
2023-02-08T21:56:05.310Z,12.99
2023-02-08T21:57:05.332Z,12.90
2023-02-08T21:58:05.341Z,12.99
2023-02-08T21:59:05.395Z,12.99
2023-02-08T22:00:05.405Z,13.03
2023-02-08T22:01:05.411Z,12.93
2023-02-08T22:02:05.399Z,13.00
2023-02-08T22:03:05.449Z,12.94
2023-02-08T22:04:05.428Z,12.97
2023-02-08T22:05:05.449Z,12.89
2023-02-08T22:06:05.455Z,13.00
2023-02-08T22:07:05.487Z,13.03
2023-02-08T22:08:05.482Z,13.07
2023-02-08T22:09:05.515Z,12.89
2023-02-08T22:10:05.515Z,12.96
2023-02-08T22:11:07.128Z,12.94
2023-02-08T22:12:05.581Z,12.93
2023-02-08T22:13:05.591Z,13.04
2023-02-08T22:14:05.618Z,12.97
2023-02-08T22:15:05.634Z,12.98
2023-02-08T22:16:05.663Z,12.97
2023-02-08T22:17:05.661Z,12.90
2023-02-08T22:18:05.678Z,12.81
2023-02-08T22:19:05.708Z,12.84
2023-02-08T22:20:05.744Z,12.88
2023-02-08T22:21:05.757Z,12.91
2023-02-08T22:22:05.755Z,12.94
2023-02-08T22:23:05.782Z,12.97
2023-02-08T22:24:05.779Z,12.98
2023-02-08T22:25:05.802Z,13.00
2023-02-08T22:26:05.814Z,12.87
2023-02-08T22:27:05.836Z,12.88
2023-02-08T22:28:05.885Z,12.87
2023-02-08T22:29:05.893Z,12.78
2023-02-08T22:30:05.892Z,12.88
2023-02-08T22:31:06.014Z,12.87
2023-02-08T22:32:06.145Z,12.92
2023-02-08T22:33:05.967Z,12.84
2023-02-08T22:34:05.980Z,12.95
2023-02-08T22:35:05.990Z,12.86
2023-02-08T22:36:06.007Z,12.82
2023-02-08T22:37:06.040Z,12.84
2023-02-08T22:38:06.040Z,12.48
2023-02-08T22:39:06.040Z,12.69
2023-02-08T22:40:06.065Z,12.72
2023-02-08T22:41:06.077Z,12.62
2023-02-08T22:42:06.088Z,12.57
2023-02-08T22:43:06.111Z,12.61
2023-02-08T22:44:06.126Z,12.60
2023-02-08T22:45:06.139Z,12.64
2023-02-08T22:46:06.164Z,12.66
2023-02-08T22:47:06.164Z,12.55
2023-02-08T22:48:06.831Z,12.67
2023-02-08T22:49:06.193Z,12.76
2023-02-08T22:50:06.215Z,12.68
2023-02-08T22:51:06.228Z,12.66
2023-02-08T22:52:06.241Z,12.74
2023-02-08T22:53:06.250Z,12.64
2023-02-08T22:54:06.268Z,12.38
2023-02-08T22:55:06.284Z,12.51
2023-02-08T22:56:06.292Z,12.67
2023-02-08T22:57:06.327Z,12.60
2023-02-08T22:58:06.310Z,12.52
2023-02-08T22:59:06.331Z,12.64
2023-02-08T23:00:06.358Z,12.55
2023-02-08T23:01:06.359Z,12.45
2023-02-08T23:02:06.388Z,12.52
2023-02-08T23:03:06.536Z,12.27
2023-02-08T23:04:06.422Z,12.54
2023-02-08T23:05:06.464Z,12.58
2023-02-08T23:06:06.459Z,12.52
2023-02-08T23:07:06.532Z,12.43
2023-02-08T23:08:06.494Z,12.43
2023-02-08T23:09:06.515Z,12.41
2023-02-08T23:10:06.540Z,12.57
2023-02-08T23:11:06.547Z,12.32
2023-02-08T23:12:06.566Z,12.49
2023-02-08T23:13:06.578Z,12.59
2023-02-08T23:14:06.607Z,12.58
2023-02-08T23:15:06.654Z,12.52
2023-02-08T23:16:06.666Z,12.51
2023-02-08T23:17:06.677Z,12.51
2023-02-08T23:18:06.685Z,12.48
2023-02-08T23:19:06.699Z,12.43
2023-02-08T23:20:06.717Z,12.55
2023-02-08T23:21:06.750Z,12.71
2023-02-08T23:22:06.759Z,12.64
2023-02-08T23:23:06.789Z,12.56
2023-02-08T23:24:06.795Z,12.61
2023-02-08T23:25:06.832Z,12.46
2023-02-08T23:26:06.835Z,12.40
2023-02-08T23:27:06.863Z,12.41
2023-02-08T23:28:06.899Z,12.51
2023-02-08T23:29:06.896Z,12.55
2023-02-08T23:30:09.520Z,12.71
2023-02-08T23:31:06.987Z,12.59
2023-02-08T23:32:06.982Z,12.41
2023-02-08T23:33:06.984Z,12.44
2023-02-08T23:34:06.991Z,12.54
2023-02-08T23:35:07.007Z,12.41
2023-02-08T23:36:07.046Z,12.49
2023-02-08T23:37:07.049Z,12.49
2023-02-08T23:38:07.070Z,12.47
2023-02-08T23:39:07.093Z,12.52
2023-02-08T23:40:07.919Z,12.33
2023-02-08T23:41:07.145Z,12.30
2023-02-08T23:42:07.162Z,12.44
2023-02-08T23:43:07.152Z,12.33
2023-02-08T23:44:07.193Z,12.26
2023-02-08T23:45:07.212Z,12.41
2023-02-08T23:46:07.199Z,12.47
2023-02-08T23:47:07.267Z,12.36
2023-02-08T23:48:07.236Z,12.37
2023-02-08T23:49:07.254Z,12.36
2023-02-08T23:50:07.277Z,12.38
2023-02-08T23:51:07.298Z,12.36
2023-02-08T23:52:07.310Z,12.36
2023-02-08T23:53:07.325Z,12.34
2023-02-08T23:54:07.363Z,12.56
2023-02-08T23:55:07.364Z,12.41
2023-02-08T23:56:07.394Z,12.54
2023-02-08T23:57:07.393Z,12.59
2023-02-08T23:58:07.406Z,12.46
2023-02-08T23:59:07.435Z,12.41
